Main page
METAR-TAF:

METAR-TAF

Airports :

Kashmar, Iran

latitude: 35-16-14N, longitude: 58-28-24E, elevation: 1110 m

Current weather observation

The report was made 27 minutes ago, at 20:00 UTC
Wind 2 kt from the South/Southeast
Temperature 30°C
Humidity 22%
Pressure 1009 hPa

METAR: OIMQ 252000Z AUTO 15002KT //// // ////// 30/06 Q1009

Time: 00:57 (20:27 UTC)


TAF: missing

Weather observations and forecasts of more than 4000 airports (METAR and TAF reports).

The available stations are represented by yellow and red dots on the map.

Hover mouse over dot to see the name of the station.

Then click to see weather observations and forecasts.

To change the map : click on the green buttons with a black cross to zoom in, on the green button with a dash to zoom out, or on the green arrows for adjacent maps.


METAR-TAF: